createdAt,value
2023-05-10T00:01:09.748Z,8.48
2023-05-10T00:03:36.482Z,8.43
2023-05-10T00:06:03.550Z,7.65
2023-05-10T00:08:30.260Z,8.07
2023-05-10T00:10:57.100Z,8.82
2023-05-10T00:13:23.798Z,8.52
2023-05-10T00:15:50.539Z,9.75
2023-05-10T00:18:17.147Z,9.07
2023-05-10T00:20:43.735Z,9.52
2023-05-10T00:23:10.338Z,8.77
2023-05-10T00:25:36.950Z,10.30
2023-05-10T00:28:03.593Z,9.85
2023-05-10T00:30:30.194Z,10.50
2023-05-10T00:32:56.844Z,10.55
2023-05-10T00:35:23.620Z,10.80
2023-05-10T00:37:50.287Z,10.60
2023-05-10T00:40:17.098Z,11.20
2023-05-10T00:42:43.934Z,11.55
2023-05-10T00:45:10.631Z,11.45
2023-05-10T00:47:37.312Z,12.35
2023-05-10T00:50:04.132Z,11.73
2023-05-10T00:52:30.748Z,12.40
2023-05-10T00:54:57.649Z,11.70
2023-05-10T00:57:24.235Z,12.20
2023-05-10T00:59:50.842Z,12.95
2023-05-10T01:02:17.509Z,12.15
2023-05-10T01:04:44.479Z,12.38
2023-05-10T01:07:11.483Z,13.10
2023-05-10T01:09:38.190Z,12.75
2023-05-10T01:12:07.741Z,12.05
2023-05-10T01:14:34.537Z,12.30
2023-05-10T01:17:01.402Z,11.70
2023-05-10T01:19:28.927Z,10.63
2023-05-10T01:22:14.586Z,9.13
2023-05-10T01:24:44.770Z,7.68
2023-05-10T01:27:49.941Z,7.47
2023-05-10T01:30:37.487Z,6.68
2023-05-10T01:33:21.127Z,5.68
2023-05-10T01:36:04.890Z,5.88
2023-05-10T01:38:51.563Z,5.33
2023-05-10T01:41:34.222Z,4.95
2023-05-10T01:44:30.575Z,4.63
2023-05-10T01:47:17.261Z,4.00
2023-05-10T01:49:50.933Z,4.75
2023-05-10T01:52:20.315Z,3.25
2023-05-10T01:54:51.381Z,3.55
2023-05-10T01:57:18.095Z,3.47
2023-05-10T01:59:44.701Z,3.55
2023-05-10T02:02:12.933Z,3.47
2023-05-10T02:04:42.895Z,3.30
2023-05-10T02:07:09.497Z,3.10
2023-05-10T02:09:36.113Z,3.00
2023-05-10T02:12:03.489Z,3.13
2023-05-10T02:14:33.294Z,3.10
2023-05-10T02:16:59.948Z,3.28
2023-05-10T02:19:27.098Z,2.97
2023-05-10T02:21:53.697Z,2.90
2023-05-10T02:24:20.305Z,3.10
2023-05-10T02:26:46.908Z,2.85
2023-05-10T02:29:13.535Z,2.80
2023-05-10T02:31:40.227Z,2.70
2023-05-10T02:34:07.374Z,2.92
2023-05-10T02:36:33.987Z,2.90
2023-05-10T02:39:01.016Z,2.90
2023-05-10T02:41:27.768Z,2.95
2023-05-10T02:43:54.553Z,2.95
2023-05-10T02:46:21.224Z,2.97
2023-05-10T02:48:47.844Z,3.22
2023-05-10T02:51:15.385Z,2.65
2023-05-10T02:53:42.229Z,2.83
2023-05-10T02:56:16.328Z,2.72
2023-05-10T02:58:42.951Z,2.88
2023-05-10T03:01:09.848Z,2.50
2023-05-10T03:03:36.498Z,3.10
2023-05-10T03:06:03.379Z,3.13
2023-05-10T03:08:32.739Z,2.65
2023-05-10T03:11:17.423Z,2.92
2023-05-10T03:14:03.641Z,2.70
2023-05-10T03:16:47.852Z,2.88
2023-05-10T03:19:34.165Z,3.35
2023-05-10T03:22:03.943Z,3.75
2023-05-10T03:24:30.546Z,3.95
2023-05-10T03:26:57.951Z,3.78
2023-05-10T03:29:24.576Z,3.65
2023-05-10T03:31:51.318Z,3.40
2023-05-10T03:34:18.357Z,3.28
2023-05-10T03:36:44.974Z,3.30
2023-05-10T03:39:11.730Z,3.35
2023-05-10T03:41:38.322Z,3.30
2023-05-10T03:44:05.045Z,3.30
2023-05-10T03:46:31.700Z,3.42
2023-05-10T03:48:58.318Z,4.00
2023-05-10T03:51:28.921Z,2.83
2023-05-10T03:53:56.516Z,2.50
2023-05-10T03:56:23.125Z,2.70
2023-05-10T03:58:49.702Z,2.70
2023-05-10T04:01:16.332Z,2.30
2023-05-10T04:03:43.029Z,1.75
2023-05-10T04:06:12.503Z,1.85
2023-05-10T04:08:39.323Z,1.40
2023-05-10T04:11:09.856Z,1.45
2023-05-10T04:13:36.557Z,1.50
2023-05-10T04:16:03.307Z,1.15
2023-05-10T04:18:30.626Z,1.33
2023-05-10T04:20:57.260Z,1.25
2023-05-10T04:23:24.167Z,1.60
2023-05-10T04:25:50.814Z,1.50
2023-05-10T04:28:17.436Z,1.30
2023-05-10T04:30:44.162Z,1.48
2023-05-10T04:33:10.778Z,1.70
2023-05-10T04:35:37.396Z,1.42
2023-05-10T04:38:04.007Z,1.65
2023-05-10T04:40:30.659Z,1.80
2023-05-10T04:42:57.596Z,1.90
2023-05-10T04:45:24.218Z,1.63
2023-05-10T04:47:50.868Z,1.42
2023-05-10T04:50:18.496Z,1.90
2023-05-10T04:52:45.317Z,1.60
2023-05-10T04:55:11.936Z,1.20
2023-05-10T04:57:38.549Z,1.20
2023-05-10T05:00:05.881Z,1.45
2023-05-10T05:02:32.559Z,1.05
2023-05-10T05:04:59.365Z,1.40
2023-05-10T05:07:26.248Z,0.90
2023-05-10T05:09:52.846Z,0.77
2023-05-10T05:12:19.562Z,0.70
2023-05-10T05:14:46.254Z,0.63
2023-05-10T05:17:12.881Z,0.80
2023-05-10T05:19:39.492Z,0.70
2023-05-10T05:22:08.061Z,0.60
2023-05-10T05:24:40.509Z,1.00
2023-05-10T05:27:07.273Z,0.77
2023-05-10T05:29:33.890Z,0.95
2023-05-10T05:32:00.617Z,0.77
2023-05-10T05:34:27.247Z,0.73
2023-05-10T05:36:53.865Z,0.90
2023-05-10T05:39:20.549Z,1.45
2023-05-10T05:41:47.317Z,1.15
2023-05-10T05:44:13.935Z,0.68
2023-05-10T05:46:40.681Z,0.95
2023-05-10T05:49:07.297Z,0.70
2023-05-10T05:51:33.894Z,0.88
2023-05-10T05:54:00.536Z,0.90
2023-05-10T05:56:27.143Z,0.75
2023-05-10T05:58:53.871Z,0.63
2023-05-10T06:01:20.635Z,2.08
2023-05-10T06:03:47.762Z,0.70
2023-05-10T06:06:14.421Z,0.80
2023-05-10T06:08:41.054Z,0.80
2023-05-10T06:11:07.674Z,1.05
2023-05-10T06:13:36.142Z,0.70
2023-05-10T06:16:03.746Z,1.00
2023-05-10T06:18:30.400Z,1.30
2023-05-10T06:20:57.085Z,1.70
2023-05-10T06:23:23.716Z,0.93
2023-05-10T06:25:50.535Z,1.00
2023-05-10T06:28:17.236Z,0.93
2023-05-10T06:30:44.205Z,0.93
2023-05-10T06:33:10.862Z,1.20
2023-05-10T06:35:37.810Z,0.90
2023-05-10T06:38:04.462Z,0.85
2023-05-10T06:40:31.114Z,0.70
2023-05-10T06:42:57.723Z,0.70
2023-05-10T06:45:24.338Z,0.90
2023-05-10T06:47:51.984Z,0.55
2023-05-10T06:50:18.640Z,0.60
2023-05-10T06:52:45.271Z,0.80
2023-05-10T06:55:12.054Z,0.80
2023-05-10T06:57:38.681Z,0.63
2023-05-10T07:00:06.073Z,0.90
2023-05-10T07:02:32.871Z,0.70
2023-05-10T07:05:01.674Z,0.93
2023-05-10T07:07:29.850Z,0.75
2023-05-10T07:09:57.568Z,0.80
2023-05-10T07:12:24.966Z,0.70
2023-05-10T07:14:51.579Z,0.50
2023-05-10T07:17:18.226Z,0.47
2023-05-10T07:19:45.042Z,0.80
2023-05-10T07:22:11.649Z,0.68
2023-05-10T07:24:38.321Z,0.70
2023-05-10T07:27:05.425Z,0.50
2023-05-10T07:29:32.098Z,0.70
2023-05-10T07:31:59.079Z,0.50
2023-05-10T07:34:25.987Z,0.50
2023-05-10T07:36:53.057Z,0.60
2023-05-10T07:39:26.717Z,0.70
2023-05-10T07:41:57.843Z,0.60
2023-05-10T07:44:24.512Z,0.60
2023-05-10T07:46:51.133Z,0.60
2023-05-10T07:49:17.835Z,0.50
2023-05-10T07:51:44.440Z,0.40
2023-05-10T07:54:11.316Z,0.57
2023-05-10T07:56:38.015Z,0.70
2023-05-10T07:59:05.209Z,0.50
2023-05-10T08:01:33.262Z,0.30
2023-05-10T08:03:59.964Z,0.40
2023-05-10T08:06:28.004Z,0.50
2023-05-10T08:08:55.157Z,0.57
2023-05-10T08:11:22.113Z,0.50
2023-05-10T08:13:49.596Z,0.40
2023-05-10T08:16:16.704Z,0.40
2023-05-10T08:18:44.318Z,0.40
2023-05-10T08:21:12.252Z,0.52
2023-05-10T08:23:38.909Z,0.70
2023-05-10T08:26:05.542Z,0.40
2023-05-10T08:28:32.263Z,0.50
2023-05-10T08:30:58.917Z,0.40
2023-05-10T08:33:25.922Z,0.70
2023-05-10T08:35:53.157Z,0.70
2023-05-10T08:38:19.812Z,0.98
2023-05-10T08:40:46.689Z,0.70
2023-05-10T08:43:13.813Z,0.68
2023-05-10T08:45:42.230Z,0.70
2023-05-10T08:48:10.028Z,0.50
2023-05-10T08:50:40.965Z,0.65
2023-05-10T08:53:11.327Z,0.77
2023-05-10T08:55:39.444Z,0.50
2023-05-10T08:58:06.431Z,0.50
2023-05-10T09:00:33.129Z,0.60
2023-05-10T09:03:00.380Z,0.90
2023-05-10T09:05:27.327Z,0.70
2023-05-10T09:07:54.013Z,0.82
2023-05-10T09:10:21.202Z,1.13
2023-05-10T09:12:47.835Z,0.90
2023-05-10T09:15:16.488Z,0.90
2023-05-10T09:17:43.632Z,0.80
2023-05-10T09:20:10.386Z,0.70
2023-05-10T09:22:37.146Z,1.13
2023-05-10T09:25:11.948Z,1.10
2023-05-10T09:27:39.355Z,1.90
2023-05-10T09:30:06.525Z,0.93
2023-05-10T09:32:42.388Z,1.75
2023-05-10T09:35:10.244Z,1.75
2023-05-10T09:37:36.943Z,1.58
2023-05-10T09:40:08.476Z,1.40
2023-05-10T09:42:36.048Z,1.70
2023-05-10T09:45:06.406Z,1.60
2023-05-10T09:47:34.712Z,1.88
2023-05-10T09:50:05.440Z,1.98
2023-05-10T09:52:32.429Z,1.95
2023-05-10T09:54:59.141Z,2.17
2023-05-10T09:57:26.796Z,2.20
2023-05-10T09:59:55.228Z,1.92
2023-05-10T10:02:22.257Z,2.50
2023-05-10T10:04:50.349Z,2.78
2023-05-10T10:07:18.256Z,2.40
2023-05-10T10:09:44.886Z,2.00
2023-05-10T10:12:11.488Z,2.10
2023-05-10T10:14:38.144Z,2.20
2023-05-10T10:17:08.680Z,2.60
2023-05-10T10:19:38.696Z,2.35
2023-05-10T10:22:05.629Z,2.10
2023-05-10T10:24:32.321Z,1.92
2023-05-10T10:27:13.860Z,2.03
2023-05-10T10:29:53.887Z,2.55
2023-05-10T10:32:31.266Z,2.00
2023-05-10T10:34:57.988Z,2.08
2023-05-10T10:37:24.756Z,2.50
2023-05-10T10:39:51.460Z,2.80
2023-05-10T10:42:47.906Z,2.78
2023-05-10T10:45:14.802Z,2.60
2023-05-10T10:47:44.075Z,3.13
2023-05-10T10:50:11.711Z,2.60
2023-05-10T10:52:39.165Z,2.83
2023-05-10T10:55:15.939Z,2.80
2023-05-10T10:57:46.638Z,3.08
2023-05-10T11:00:22.811Z,3.45
2023-05-10T11:02:50.190Z,3.70
2023-05-10T11:05:24.392Z,4.28
2023-05-10T11:10:24.690Z,3.20
2023-05-10T11:13:01.775Z,3.90
2023-05-10T11:15:34.688Z,3.85
2023-05-10T11:18:01.404Z,3.92
2023-05-10T11:20:39.566Z,4.57
2023-05-10T11:23:16.876Z,4.07
2023-05-10T11:25:46.623Z,3.67
2023-05-10T11:28:13.594Z,5.18
2023-05-10T11:30:40.873Z,5.38
2023-05-10T11:33:08.129Z,4.90
2023-05-10T11:35:43.179Z,4.90
2023-05-10T11:38:11.047Z,4.47
2023-05-10T11:40:37.900Z,4.82
2023-05-10T11:43:04.769Z,4.30
2023-05-10T11:45:34.393Z,4.05
2023-05-10T11:48:01.162Z,4.63
2023-05-10T11:50:28.077Z,4.47
2023-05-10T11:52:55.791Z,5.13
2023-05-10T11:55:22.459Z,4.10
2023-05-10T11:57:52.254Z,4.18
2023-05-10T12:00:19.152Z,4.15
2023-05-10T12:02:48.308Z,4.03
2023-05-10T12:05:14.969Z,4.53
2023-05-10T12:07:41.569Z,5.10
2023-05-10T12:10:15.508Z,5.03
2023-05-10T12:12:44.025Z,5.10
2023-05-10T12:15:20.722Z,5.10
2023-05-10T12:17:48.059Z,5.05
2023-05-10T12:20:22.298Z,6.28
2023-05-10T12:25:19.751Z,5.95
2023-05-10T12:27:54.639Z,6.65
2023-05-10T12:30:24.970Z,6.43
2023-05-10T12:32:52.000Z,6.57
2023-05-10T12:35:21.863Z,6.95
2023-05-10T12:37:48.805Z,6.70
2023-05-10T12:40:15.667Z,6.72
2023-05-10T12:42:42.565Z,8.10
2023-05-10T12:45:09.523Z,9.40
2023-05-10T12:47:36.182Z,8.75
2023-05-10T12:50:03.576Z,8.00
2023-05-10T12:52:30.865Z,7.18
2023-05-10T12:54:57.505Z,4.85
2023-05-10T12:57:24.205Z,4.95
2023-05-10T12:59:50.969Z,4.82
2023-05-10T13:02:19.128Z,5.72
2023-05-10T13:04:48.782Z,4.93
2023-05-10T13:07:16.273Z,5.32
2023-05-10T13:09:42.927Z,5.30
2023-05-10T13:12:10.232Z,5.63
2023-05-10T13:14:36.981Z,5.47
2023-05-10T13:17:03.640Z,5.68
2023-05-10T13:19:30.351Z,5.13
2023-05-10T13:21:57.052Z,5.03
2023-05-10T13:24:23.647Z,5.57
2023-05-10T13:26:50.497Z,5.32
2023-05-10T13:29:18.918Z,6.30
2023-05-10T13:31:45.615Z,6.05
2023-05-10T13:34:12.358Z,6.30
2023-05-10T13:36:39.133Z,4.43
2023-05-10T13:39:06.311Z,4.65
2023-05-10T13:41:33.061Z,4.93
2023-05-10T13:43:59.673Z,4.40
2023-05-10T13:46:26.433Z,4.22
2023-05-10T13:48:53.192Z,3.70
2023-05-10T13:51:19.784Z,3.60
2023-05-10T13:53:47.977Z,3.72
2023-05-10T13:56:14.960Z,3.35
2023-05-10T13:58:42.264Z,3.25
2023-05-10T14:01:08.929Z,3.15
2023-05-10T14:03:35.689Z,2.75
2023-05-10T14:06:02.479Z,3.10
2023-05-10T14:08:29.170Z,3.15
2023-05-10T14:10:57.330Z,3.13
2023-05-10T14:13:24.662Z,3.58
2023-05-10T14:15:51.456Z,3.10
2023-05-10T14:18:18.384Z,3.40
2023-05-10T14:20:45.068Z,3.00
2023-05-10T14:23:12.038Z,3.83
2023-05-10T14:25:41.844Z,3.35
2023-05-10T14:28:08.596Z,3.85
2023-05-10T14:30:35.258Z,3.15
2023-05-10T14:33:03.318Z,2.58
2023-05-10T14:35:31.923Z,3.05
2023-05-10T14:37:59.249Z,2.60
2023-05-10T14:40:26.036Z,2.92
2023-05-10T14:42:53.928Z,3.22
2023-05-10T14:45:21.084Z,3.30
2023-05-10T14:47:47.852Z,3.10
2023-05-10T14:50:24.657Z,2.80
2023-05-10T14:53:01.256Z,3.97
2023-05-10T14:55:27.980Z,4.85
2023-05-10T14:57:55.122Z,5.40
2023-05-10T15:00:22.083Z,4.90
2023-05-10T15:02:49.416Z,5.60
2023-05-10T15:05:17.020Z,5.53
2023-05-10T15:07:44.755Z,5.40
2023-05-10T15:10:12.291Z,5.53
2023-05-10T15:12:39.233Z,6.50
2023-05-10T15:15:07.103Z,6.72
2023-05-10T15:17:34.011Z,7.15
2023-05-10T15:20:01.140Z,7.60
2023-05-10T15:22:29.237Z,7.57
2023-05-10T15:24:56.001Z,6.88
2023-05-10T15:27:22.619Z,7.72
2023-05-10T15:29:49.254Z,7.35
2023-05-10T15:32:15.918Z,6.68
2023-05-10T15:34:42.525Z,7.45
2023-05-10T15:37:11.665Z,6.45
2023-05-10T15:39:38.377Z,6.53
2023-05-10T15:42:05.063Z,6.18
2023-05-10T15:44:31.720Z,5.93
2023-05-10T15:46:58.589Z,5.63
2023-05-10T15:49:25.603Z,5.50
2023-05-10T15:51:52.298Z,6.50
2023-05-10T15:54:18.908Z,6.22
2023-05-10T15:56:45.575Z,5.82
2023-05-10T15:59:12.248Z,7.30
2023-05-10T16:01:38.852Z,7.63
2023-05-10T16:04:05.848Z,7.15
2023-05-10T16:06:32.716Z,7.72
2023-05-10T16:08:59.386Z,6.10
2023-05-10T16:11:26.041Z,5.32
2023-05-10T16:13:52.836Z,5.03
2023-05-10T16:16:19.646Z,4.55
2023-05-10T16:18:46.478Z,5.38
2023-05-10T16:21:13.176Z,4.50
2023-05-10T16:23:40.083Z,4.75
2023-05-10T16:26:06.733Z,3.85
2023-05-10T16:28:33.343Z,4.65
2023-05-10T16:31:00.037Z,5.03
2023-05-10T16:33:27.154Z,3.95
2023-05-10T16:35:53.752Z,4.35
2023-05-10T16:38:21.700Z,4.57
2023-05-10T16:40:48.484Z,4.50
2023-05-10T16:43:15.085Z,3.78
2023-05-10T16:45:42.299Z,3.85
2023-05-10T16:48:09.077Z,4.03
2023-05-10T16:50:35.689Z,4.10
2023-05-10T16:53:02.470Z,3.55
2023-05-10T16:55:29.089Z,3.58
2023-05-10T16:58:00.760Z,3.95
2023-05-10T17:00:27.541Z,3.58
2023-05-10T17:02:54.818Z,3.90
2023-05-10T17:05:22.247Z,3.50
2023-05-10T17:07:49.418Z,5.15
2023-05-10T17:10:16.358Z,5.43
2023-05-10T17:12:43.249Z,5.30
2023-05-10T17:15:10.511Z,5.05
2023-05-10T17:17:37.523Z,5.40
2023-05-10T17:20:04.969Z,5.47
2023-05-10T17:22:31.616Z,5.25
2023-05-10T17:24:58.251Z,5.40
2023-05-10T17:27:24.868Z,5.07
2023-05-10T17:29:56.463Z,5.93
2023-05-10T17:32:23.364Z,6.32
2023-05-10T17:34:50.130Z,6.28
2023-05-10T17:37:16.815Z,6.50
2023-05-10T17:39:43.412Z,6.28
2023-05-10T17:42:10.175Z,6.82
2023-05-10T17:44:36.786Z,7.03
2023-05-10T17:47:03.420Z,6.85
2023-05-10T17:49:30.194Z,6.95
2023-05-10T17:51:56.813Z,7.20
2023-05-10T17:54:23.443Z,6.93
2023-05-10T17:56:50.123Z,6.25
2023-05-10T17:59:16.722Z,6.13
2023-05-10T18:01:43.434Z,6.13
2023-05-10T18:04:10.124Z,6.15
2023-05-10T18:06:37.357Z,5.55
2023-05-10T18:09:04.868Z,6.13
2023-05-10T18:11:31.467Z,6.47
2023-05-10T18:13:58.201Z,5.70
2023-05-10T18:16:24.841Z,5.28
2023-05-10T18:18:51.637Z,6.57
2023-05-10T18:21:18.738Z,5.93
2023-05-10T18:23:45.707Z,6.28
2023-05-10T18:26:12.936Z,6.45
2023-05-10T18:28:39.554Z,5.78
2023-05-10T18:31:06.221Z,6.50
2023-05-10T18:33:32.851Z,6.65
2023-05-10T18:35:59.870Z,6.07
2023-05-10T18:38:26.509Z,6.25
2023-05-10T18:40:53.104Z,6.65
2023-05-10T18:43:19.711Z,6.78
2023-05-10T18:45:46.309Z,6.43
2023-05-10T18:48:12.928Z,7.20
2023-05-10T18:50:39.771Z,7.38
2023-05-10T18:53:06.433Z,7.95
2023-05-10T18:55:33.033Z,9.57
2023-05-10T18:58:01.163Z,7.47
2023-05-10T19:00:27.814Z,7.90
2023-05-10T19:02:54.578Z,7.68
2023-05-10T19:05:21.265Z,8.52
2023-05-10T19:07:47.841Z,8.23
2023-05-10T19:10:14.526Z,8.15
2023-05-10T19:12:41.694Z,7.45
2023-05-10T19:15:08.887Z,7.13
2023-05-10T19:17:36.901Z,7.07
2023-05-10T19:20:05.796Z,6.25
2023-05-10T19:22:45.435Z,7.35
2023-05-10T19:25:20.965Z,7.07
2023-05-10T19:27:47.630Z,6.68
2023-05-10T19:30:14.285Z,7.28
2023-05-10T19:32:43.964Z,7.22
2023-05-10T19:35:12.557Z,6.80
2023-05-10T19:37:39.173Z,6.47
2023-05-10T19:40:06.641Z,6.50
2023-05-10T19:42:33.256Z,7.28
2023-05-10T19:44:59.906Z,7.03
2023-05-10T19:47:26.791Z,8.00
2023-05-10T19:49:53.504Z,6.75
2023-05-10T19:52:20.147Z,8.18
2023-05-10T19:54:46.745Z,6.45
2023-05-10T19:57:14.143Z,7.45
2023-05-10T19:59:40.835Z,7.35
2023-05-10T20:02:07.544Z,7.22
2023-05-10T20:04:34.189Z,6.05
2023-05-10T20:07:00.864Z,6.43
2023-05-10T20:09:27.452Z,6.38
2023-05-10T20:11:54.287Z,6.55
2023-05-10T20:14:20.882Z,6.10
2023-05-10T20:16:47.671Z,6.75
2023-05-10T20:19:14.465Z,7.07
2023-05-10T20:21:41.125Z,7.15
2023-05-10T20:24:08.842Z,7.57
2023-05-10T20:26:35.584Z,7.15
2023-05-10T20:29:02.223Z,7.45
2023-05-10T20:31:29.127Z,6.70
2023-05-10T20:33:55.791Z,7.22
2023-05-10T20:36:22.386Z,6.32
2023-05-10T20:38:48.995Z,5.63
2023-05-10T20:41:15.600Z,6.25
2023-05-10T20:43:42.207Z,6.25
2023-05-10T20:46:08.815Z,7.63
2023-05-10T20:48:35.540Z,8.45
2023-05-10T20:51:02.497Z,7.97
2023-05-10T20:53:29.393Z,7.75
2023-05-10T20:55:55.997Z,8.43
2023-05-10T20:58:22.724Z,8.68
2023-05-10T21:00:49.303Z,8.65
2023-05-10T21:03:15.968Z,7.07
2023-05-10T21:05:42.636Z,7.95
2023-05-10T21:08:09.251Z,7.63
2023-05-10T21:10:35.931Z,7.97
2023-05-10T21:13:02.521Z,7.90
2023-05-10T21:15:29.127Z,8.43
2023-05-10T21:17:55.814Z,8.98
2023-05-10T21:20:23.391Z,8.77
2023-05-10T21:22:50.014Z,8.18
2023-05-10T21:25:17.167Z,8.43
2023-05-10T21:27:43.749Z,7.68
2023-05-10T21:30:10.508Z,7.53
2023-05-10T21:32:37.131Z,8.38
2023-05-10T21:35:04.346Z,7.72
2023-05-10T21:37:30.971Z,7.13
2023-05-10T21:39:57.592Z,7.10
2023-05-10T21:42:24.190Z,7.60
2023-05-10T21:44:50.804Z,7.55
2023-05-10T21:47:17.399Z,7.07
2023-05-10T21:49:44.331Z,6.43
2023-05-10T21:52:11.125Z,7.05
2023-05-10T21:54:37.729Z,7.30
2023-05-10T21:57:04.316Z,6.75
2023-05-10T21:59:30.957Z,7.57
2023-05-10T22:01:57.572Z,8.57
2023-05-10T22:04:24.627Z,7.28
2023-05-10T22:06:51.235Z,7.55
2023-05-10T22:09:18.742Z,8.20
2023-05-10T22:11:45.618Z,8.45
2023-05-10T22:14:12.219Z,8.70
2023-05-10T22:16:38.887Z,8.93
2023-05-10T22:19:05.602Z,7.53
2023-05-10T22:21:32.241Z,8.18
2023-05-10T22:23:59.008Z,8.50
2023-05-10T22:26:26.016Z,8.45
2023-05-10T22:28:52.614Z,9.10
2023-05-10T22:31:19.247Z,8.40
2023-05-10T22:33:45.927Z,9.77
2023-05-10T22:36:12.585Z,9.75
2023-05-10T22:38:39.166Z,10.20
2023-05-10T22:41:05.770Z,9.43
2023-05-10T22:43:32.543Z,9.02
2023-05-10T22:45:59.266Z,8.50
2023-05-10T22:48:25.909Z,7.97
2023-05-10T22:50:52.507Z,8.93
2023-05-10T22:53:19.109Z,8.80
2023-05-10T22:55:47.005Z,8.23
2023-05-10T22:58:13.629Z,7.20
2023-05-10T23:00:40.216Z,7.03
2023-05-10T23:03:06.865Z,7.43
2023-05-10T23:05:33.459Z,7.35
2023-05-10T23:08:00.110Z,7.80
2023-05-10T23:10:26.780Z,8.25
2023-05-10T23:12:53.416Z,7.13
2023-05-10T23:15:20.008Z,7.13
2023-05-10T23:17:46.977Z,7.43
2023-05-10T23:20:13.682Z,7.07
2023-05-10T23:22:40.366Z,6.53
2023-05-10T23:25:07.555Z,7.40
2023-05-10T23:27:34.259Z,7.03
2023-05-10T23:30:00.901Z,7.35
2023-05-10T23:32:27.548Z,7.63
2023-05-10T23:34:54.300Z,8.02
2023-05-10T23:37:21.199Z,7.75
2023-05-10T23:39:47.949Z,7.30
2023-05-10T23:42:14.550Z,8.00
2023-05-10T23:44:41.249Z,8.15
2023-05-10T23:47:07.933Z,8.65
2023-05-10T23:49:34.543Z,8.68
2023-05-10T23:52:01.190Z,8.70
2023-05-10T23:54:28.426Z,9.10
2023-05-10T23:56:55.028Z,8.13
2023-05-10T23:59:21.661Z,6.85
